sensor_id;sensor_type;location;lat;lon;timestamp;P1;durP1;ratioP1;P2;durP2;ratioP2
27632;SDS011;15046;50.930;13.334;2022-09-17T00:01:56;7.55;;;2.33;;
27632;SDS011;15046;50.930;13.334;2022-09-17T00:04:22;7.43;;;2.20;;
27632;SDS011;15046;50.930;13.334;2022-09-17T00:06:48;8.73;;;2.05;;
27632;SDS011;15046;50.930;13.334;2022-09-17T00:09:14;9.35;;;1.88;;
27632;SDS011;15046;50.930;13.334;2022-09-17T00:11:41;6.82;;;1.60;;
27632;SDS011;15046;50.930;13.334;2022-09-17T00:14:09;6.65;;;2.25;;
27632;SDS011;15046;50.930;13.334;2022-09-17T00:16:39;7.18;;;2.03;;
27632;SDS011;15046;50.930;13.334;2022-09-17T00:19:08;4.22;;;1.55;;
27632;SDS011;15046;50.930;13.334;2022-09-17T00:21:38;7.03;;;1.60;;
27632;SDS011;15046;50.930;13.334;2022-09-17T00:24:05;5.97;;;1.40;;
27632;SDS011;15046;50.930;13.334;2022-09-17T00:26:31;6.80;;;1.58;;
27632;SDS011;15046;50.930;13.334;2022-09-17T00:28:59;5.30;;;1.60;;
27632;SDS011;15046;50.930;13.334;2022-09-17T00:31:26;8.43;;;1.92;;
27632;SDS011;15046;50.930;13.334;2022-09-17T00:33:53;7.85;;;2.25;;
27632;SDS011;15046;50.930;13.334;2022-09-17T00:36:20;5.80;;;1.83;;
27632;SDS011;15046;50.930;13.334;2022-09-17T00:38:53;5.82;;;1.77;;
27632;SDS011;15046;50.930;13.334;2022-09-17T00:41:22;10.23;;;1.92;;
27632;SDS011;15046;50.930;13.334;2022-09-17T00:43:51;4.85;;;1.30;;
27632;SDS011;15046;50.930;13.334;2022-09-17T00:46:39;6.50;;;1.58;;
27632;SDS011;15046;50.930;13.334;2022-09-17T00:49:13;8.45;;;2.38;;
27632;SDS011;15046;50.930;13.334;2022-09-17T00:52:06;6.82;;;1.58;;
27632;SDS011;15046;50.930;13.334;2022-09-17T00:54:34;6.18;;;1.85;;
27632;SDS011;15046;50.930;13.334;2022-09-17T00:57:03;6.90;;;1.80;;
27632;SDS011;15046;50.930;13.334;2022-09-17T00:59:29;7.32;;;1.75;;
27632;SDS011;15046;50.930;13.334;2022-09-17T01:01:55;4.95;;;1.80;;
27632;SDS011;15046;50.930;13.334;2022-09-17T01:04:22;10.88;;;1.83;;
27632;SDS011;15046;50.930;13.334;2022-09-17T01:12:32;6.85;;;1.50;;
27632;SDS011;15046;50.930;13.334;2022-09-17T01:18:29;7.68;;;1.85;;
27632;SDS011;15046;50.930;13.334;2022-09-17T01:23:47;4.63;;;1.35;;
27632;SDS011;15046;50.930;13.334;2022-09-17T01:32:51;7.00;;;1.58;;
27632;SDS011;15046;50.930;13.334;2022-09-17T01:35:07;5.93;;;1.67;;
27632;SDS011;15046;50.930;13.334;2022-09-17T01:40:16;6.15;;;1.67;;
27632;SDS011;15046;50.930;13.334;2022-09-17T01:45:51;4.70;;;1.35;;
27632;SDS011;15046;50.930;13.334;2022-09-17T01:48:22;4.15;;;1.35;;
27632;SDS011;15046;50.930;13.334;2022-09-17T01:53:37;4.38;;;1.45;;
27632;SDS011;15046;50.930;13.334;2022-09-17T01:56:11;5.45;;;1.42;;
27632;SDS011;15046;50.930;13.334;2022-09-17T01:58:44;5.30;;;1.20;;
27632;SDS011;15046;50.930;13.334;2022-09-17T02:01:16;6.93;;;1.65;;
27632;SDS011;15046;50.930;13.334;2022-09-17T02:03:51;7.13;;;1.40;;
27632;SDS011;15046;50.930;13.334;2022-09-17T02:06:28;5.72;;;1.83;;
27632;SDS011;15046;50.930;13.334;2022-09-17T02:09:00;3.83;;;1.20;;
27632;SDS011;15046;50.930;13.334;2022-09-17T02:11:36;6.72;;;1.20;;
27632;SDS011;15046;50.930;13.334;2022-09-17T02:14:06;7.60;;;1.58;;
27632;SDS011;15046;50.930;13.334;2022-09-17T02:16:47;8.25;;;1.27;;
27632;SDS011;15046;50.930;13.334;2022-09-17T02:19:28;4.97;;;1.20;;
27632;SDS011;15046;50.930;13.334;2022-09-17T02:22:04;8.75;;;1.55;;
27632;SDS011;15046;50.930;13.334;2022-09-17T02:25:00;3.50;;;1.27;;
27632;SDS011;15046;50.930;13.334;2022-09-17T02:27:38;6.75;;;1.23;;
27632;SDS011;15046;50.930;13.334;2022-09-17T02:30:19;6.60;;;1.67;;
27632;SDS011;15046;50.930;13.334;2022-09-17T02:32:45;5.63;;;1.75;;
27632;SDS011;15046;50.930;13.334;2022-09-17T02:35:11;6.93;;;1.40;;
27632;SDS011;15046;50.930;13.334;2022-09-17T02:37:39;5.43;;;1.58;;
27632;SDS011;15046;50.930;13.334;2022-09-17T02:40:06;8.82;;;2.50;;
27632;SDS011;15046;50.930;13.334;2022-09-17T02:45:36;7.45;;;1.70;;
27632;SDS011;15046;50.930;13.334;2022-09-17T02:48:37;8.82;;;2.28;;
27632;SDS011;15046;50.930;13.334;2022-09-17T02:54:25;5.28;;;2.05;;
27632;SDS011;15046;50.930;13.334;2022-09-17T02:57:14;5.33;;;2.17;;
27632;SDS011;15046;50.930;13.334;2022-09-17T03:00:13;7.15;;;2.00;;
27632;SDS011;15046;50.930;13.334;2022-09-17T03:03:02;6.97;;;1.95;;
27632;SDS011;15046;50.930;13.334;2022-09-17T03:05:33;10.43;;;2.70;;
27632;SDS011;15046;50.930;13.334;2022-09-17T03:08:01;6.90;;;3.15;;
27632;SDS011;15046;50.930;13.334;2022-09-17T03:10:27;7.60;;;2.22;;
27632;SDS011;15046;50.930;13.334;2022-09-17T03:12:57;3.65;;;1.92;;
27632;SDS011;15046;50.930;13.334;2022-09-17T03:15:23;7.25;;;2.20;;
27632;SDS011;15046;50.930;13.334;2022-09-17T03:17:49;11.50;;;2.65;;
27632;SDS011;15046;50.930;13.334;2022-09-17T03:20:15;6.60;;;1.90;;
27632;SDS011;15046;50.930;13.334;2022-09-17T03:22:41;9.13;;;2.33;;
27632;SDS011;15046;50.930;13.334;2022-09-17T03:25:07;7.57;;;2.33;;
27632;SDS011;15046;50.930;13.334;2022-09-17T03:27:33;9.00;;;2.47;;
27632;SDS011;15046;50.930;13.334;2022-09-17T03:29:59;8.10;;;2.50;;
27632;SDS011;15046;50.930;13.334;2022-09-17T03:32:25;6.68;;;2.15;;
27632;SDS011;15046;50.930;13.334;2022-09-17T03:34:51;6.18;;;2.28;;
27632;SDS011;15046;50.930;13.334;2022-09-17T03:37:19;4.65;;;2.10;;
27632;SDS011;15046;50.930;13.334;2022-09-17T03:39:45;6.60;;;2.20;;
27632;SDS011;15046;50.930;13.334;2022-09-17T03:42:11;6.13;;;1.95;;
27632;SDS011;15046;50.930;13.334;2022-09-17T03:44:37;7.00;;;3.22;;
27632;SDS011;15046;50.930;13.334;2022-09-17T03:47:03;11.00;;;3.67;;
27632;SDS011;15046;50.930;13.334;2022-09-17T03:49:28;8.40;;;3.85;;
27632;SDS011;15046;50.930;13.334;2022-09-17T03:51:54;8.02;;;3.60;;
27632;SDS011;15046;50.930;13.334;2022-09-17T03:54:20;7.78;;;3.95;;
27632;SDS011;15046;50.930;13.334;2022-09-17T03:56:46;8.52;;;3.63;;
27632;SDS011;15046;50.930;13.334;2022-09-17T03:59:12;7.93;;;3.83;;
27632;SDS011;15046;50.930;13.334;2022-09-17T04:01:38;10.90;;;4.43;;
27632;SDS011;15046;50.930;13.334;2022-09-17T04:04:04;9.02;;;4.50;;
27632;SDS011;15046;50.930;13.334;2022-09-17T04:06:30;8.85;;;4.40;;
27632;SDS011;15046;50.930;13.334;2022-09-17T04:08:55;8.10;;;3.80;;
27632;SDS011;15046;50.930;13.334;2022-09-17T04:11:21;9.25;;;4.07;;
27632;SDS011;15046;50.930;13.334;2022-09-17T04:13:47;13.85;;;5.28;;
27632;SDS011;15046;50.930;13.334;2022-09-17T04:16:13;6.97;;;4.35;;
27632;SDS011;15046;50.930;13.334;2022-09-17T04:18:39;7.15;;;4.70;;
27632;SDS011;15046;50.930;13.334;2022-09-17T04:21:05;10.25;;;5.00;;
27632;SDS011;15046;50.930;13.334;2022-09-17T04:23:30;10.23;;;5.18;;
27632;SDS011;15046;50.930;13.334;2022-09-17T04:25:56;6.75;;;4.78;;
27632;SDS011;15046;50.930;13.334;2022-09-17T04:28:22;11.18;;;4.70;;
27632;SDS011;15046;50.930;13.334;2022-09-17T04:30:48;13.13;;;4.68;;
27632;SDS011;15046;50.930;13.334;2022-09-17T04:33:14;14.55;;;4.93;;
27632;SDS011;15046;50.930;13.334;2022-09-17T04:35:40;6.95;;;4.85;;
27632;SDS011;15046;50.930;13.334;2022-09-17T04:38:06;7.85;;;5.50;;
27632;SDS011;15046;50.930;13.334;2022-09-17T04:40:32;7.72;;;5.38;;
27632;SDS011;15046;50.930;13.334;2022-09-17T04:42:58;12.27;;;5.70;;
27632;SDS011;15046;50.930;13.334;2022-09-17T04:45:27;8.00;;;5.63;;
27632;SDS011;15046;50.930;13.334;2022-09-17T04:47:54;8.25;;;5.65;;
27632;SDS011;15046;50.930;13.334;2022-09-17T04:50:20;9.55;;;5.60;;
27632;SDS011;15046;50.930;13.334;2022-09-17T04:52:47;12.10;;;6.10;;
27632;SDS011;15046;50.930;13.334;2022-09-17T04:55:13;10.05;;;5.47;;
27632;SDS011;15046;50.930;13.334;2022-09-17T04:57:49;10.25;;;6.03;;
27632;SDS011;15046;50.930;13.334;2022-09-17T05:00:16;8.18;;;5.90;;
27632;SDS011;15046;50.930;13.334;2022-09-17T05:02:44;9.02;;;5.80;;
27632;SDS011;15046;50.930;13.334;2022-09-17T05:05:12;9.52;;;4.80;;
27632;SDS011;15046;50.930;13.334;2022-09-17T05:07:38;9.63;;;5.82;;
27632;SDS011;15046;50.930;13.334;2022-09-17T05:10:05;11.60;;;5.90;;
27632;SDS011;15046;50.930;13.334;2022-09-17T05:12:32;7.95;;;4.97;;
27632;SDS011;15046;50.930;13.334;2022-09-17T05:14:57;8.43;;;5.65;;
27632;SDS011;15046;50.930;13.334;2022-09-17T05:17:23;8.38;;;5.57;;
27632;SDS011;15046;50.930;13.334;2022-09-17T05:19:49;8.82;;;5.80;;
27632;SDS011;15046;50.930;13.334;2022-09-17T05:22:17;7.60;;;5.32;;
27632;SDS011;15046;50.930;13.334;2022-09-17T05:24:44;8.90;;;5.80;;
27632;SDS011;15046;50.930;13.334;2022-09-17T05:27:09;8.73;;;5.82;;
27632;SDS011;15046;50.930;13.334;2022-09-17T05:29:35;8.93;;;4.55;;
27632;SDS011;15046;50.930;13.334;2022-09-17T05:32:02;5.47;;;4.05;;
27632;SDS011;15046;50.930;13.334;2022-09-17T05:34:28;6.47;;;3.97;;
27632;SDS011;15046;50.930;13.334;2022-09-17T05:36:54;6.07;;;4.18;;
27632;SDS011;15046;50.930;13.334;2022-09-17T05:39:20;7.40;;;4.40;;
27632;SDS011;15046;50.930;13.334;2022-09-17T05:41:52;6.53;;;3.97;;
27632;SDS011;15046;50.930;13.334;2022-09-17T05:44:18;8.77;;;4.35;;
27632;SDS011;15046;50.930;13.334;2022-09-17T05:46:44;8.63;;;4.25;;
27632;SDS011;15046;50.930;13.334;2022-09-17T05:49:11;7.75;;;4.43;;
27632;SDS011;15046;50.930;13.334;2022-09-17T05:51:39;5.10;;;3.63;;
27632;SDS011;15046;50.930;13.334;2022-09-17T05:54:05;6.35;;;3.42;;
27632;SDS011;15046;50.930;13.334;2022-09-17T05:56:31;8.00;;;3.60;;
27632;SDS011;15046;50.930;13.334;2022-09-17T05:58:57;6.00;;;3.42;;
27632;SDS011;15046;50.930;13.334;2022-09-17T06:01:23;6.15;;;2.67;;
27632;SDS011;15046;50.930;13.334;2022-09-17T06:03:49;4.75;;;2.83;;
27632;SDS011;15046;50.930;13.334;2022-09-17T06:06:15;4.93;;;2.05;;
27632;SDS011;15046;50.930;13.334;2022-09-17T06:08:41;4.25;;;2.50;;
27632;SDS011;15046;50.930;13.334;2022-09-17T06:11:07;5.13;;;2.42;;
27632;SDS011;15046;50.930;13.334;2022-09-17T06:13:34;5.38;;;2.90;;
27632;SDS011;15046;50.930;13.334;2022-09-17T06:16:00;3.72;;;2.22;;
27632;SDS011;15046;50.930;13.334;2022-09-17T06:18:27;4.53;;;2.17;;
27632;SDS011;15046;50.930;13.334;2022-09-17T06:20:54;2.55;;;1.52;;
27632;SDS011;15046;50.930;13.334;2022-09-17T06:23:22;3.05;;;1.60;;
27632;SDS011;15046;50.930;13.334;2022-09-17T06:25:49;2.75;;;1.42;;
27632;SDS011;15046;50.930;13.334;2022-09-17T06:28:22;3.08;;;1.73;;
27632;SDS011;15046;50.930;13.334;2022-09-17T06:30:51;3.50;;;1.57;;
27632;SDS011;15046;50.930;13.334;2022-09-17T06:33:21;3.00;;;1.45;;
27632;SDS011;15046;50.930;13.334;2022-09-17T06:35:48;2.72;;;1.42;;
27632;SDS011;15046;50.930;13.334;2022-09-17T06:38:20;2.90;;;1.75;;
27632;SDS011;15046;50.930;13.334;2022-09-17T06:40:49;3.85;;;1.38;;
27632;SDS011;15046;50.930;13.334;2022-09-17T06:45:42;2.15;;;1.20;;
27632;SDS011;15046;50.930;13.334;2022-09-17T06:48:07;3.28;;;1.60;;
27632;SDS011;15046;50.930;13.334;2022-09-17T06:50:33;2.70;;;1.70;;
27632;SDS011;15046;50.930;13.334;2022-09-17T06:52:59;3.58;;;1.80;;
27632;SDS011;15046;50.930;13.334;2022-09-17T06:55:25;3.38;;;1.70;;
27632;SDS011;15046;50.930;13.334;2022-09-17T06:57:52;6.45;;;2.40;;
27632;SDS011;15046;50.930;13.334;2022-09-17T07:00:18;3.72;;;2.25;;
27632;SDS011;15046;50.930;13.334;2022-09-17T07:02:53;6.25;;;2.42;;
27632;SDS011;15046;50.930;13.334;2022-09-17T07:05:22;5.30;;;2.70;;
27632;SDS011;15046;50.930;13.334;2022-09-17T07:07:49;6.75;;;2.80;;
27632;SDS011;15046;50.930;13.334;2022-09-17T07:10:15;6.15;;;4.00;;
27632;SDS011;15046;50.930;13.334;2022-09-17T07:12:41;9.75;;;4.68;;
27632;SDS011;15046;50.930;13.334;2022-09-17T07:15:07;11.65;;;4.97;;
27632;SDS011;15046;50.930;13.334;2022-09-17T07:17:37;12.32;;;5.82;;
27632;SDS011;15046;50.930;13.334;2022-09-17T07:20:04;12.50;;;7.03;;
27632;SDS011;15046;50.930;13.334;2022-09-17T07:22:32;22.55;;;7.97;;
27632;SDS011;15046;50.930;13.334;2022-09-17T07:24:58;14.68;;;8.70;;
27632;SDS011;15046;50.930;13.334;2022-09-17T07:27:25;18.17;;;8.20;;
27632;SDS011;15046;50.930;13.334;2022-09-17T07:29:53;16.90;;;8.67;;
27632;SDS011;15046;50.930;13.334;2022-09-17T07:32:19;18.58;;;8.60;;
27632;SDS011;15046;50.930;13.334;2022-09-17T07:34:45;14.63;;;8.07;;
27632;SDS011;15046;50.930;13.334;2022-09-17T07:37:11;21.65;;;8.55;;
27632;SDS011;15046;50.930;13.334;2022-09-17T07:39:37;19.42;;;8.68;;
27632;SDS011;15046;50.930;13.334;2022-09-17T07:42:03;21.48;;;9.10;;
27632;SDS011;15046;50.930;13.334;2022-09-17T07:44:29;18.58;;;8.57;;
27632;SDS011;15046;50.930;13.334;2022-09-17T07:46:55;13.95;;;7.43;;
27632;SDS011;15046;50.930;13.334;2022-09-17T07:49:21;18.15;;;8.27;;
27632;SDS011;15046;50.930;13.334;2022-09-17T07:51:48;22.13;;;8.77;;
27632;SDS011;15046;50.930;13.334;2022-09-17T07:54:14;24.02;;;8.13;;
27632;SDS011;15046;50.930;13.334;2022-09-17T07:56:39;17.42;;;8.52;;
27632;SDS011;15046;50.930;13.334;2022-09-17T07:59:05;21.25;;;7.95;;
27632;SDS011;15046;50.930;13.334;2022-09-17T08:01:32;15.43;;;7.28;;
27632;SDS011;15046;50.930;13.334;2022-09-17T08:03:58;14.80;;;7.53;;
27632;SDS011;15046;50.930;13.334;2022-09-17T08:06:25;18.45;;;7.60;;
27632;SDS011;15046;50.930;13.334;2022-09-17T08:08:54;25.05;;;8.55;;
27632;SDS011;15046;50.930;13.334;2022-09-17T08:11:22;16.95;;;7.22;;
27632;SDS011;15046;50.930;13.334;2022-09-17T08:13:50;14.35;;;6.25;;
27632;SDS011;15046;50.930;13.334;2022-09-17T08:16:18;14.13;;;5.00;;
27632;SDS011;15046;50.930;13.334;2022-09-17T08:18:45;18.00;;;6.53;;
27632;SDS011;15046;50.930;13.334;2022-09-17T08:21:13;19.60;;;6.10;;
27632;SDS011;15046;50.930;13.334;2022-09-17T08:23:40;13.65;;;4.80;;
27632;SDS011;15046;50.930;13.334;2022-09-17T08:26:10;10.52;;;5.03;;
27632;SDS011;15046;50.930;13.334;2022-09-17T08:28:44;19.42;;;6.45;;
27632;SDS011;15046;50.930;13.334;2022-09-17T08:31:12;11.00;;;5.22;;
27632;SDS011;15046;50.930;13.334;2022-09-17T08:33:38;11.93;;;5.05;;
27632;SDS011;15046;50.930;13.334;2022-09-17T08:36:05;12.82;;;5.03;;
27632;SDS011;15046;50.930;13.334;2022-09-17T08:38:33;10.52;;;4.03;;
27632;SDS011;15046;50.930;13.334;2022-09-17T08:43:50;9.90;;;3.35;;
27632;SDS011;15046;50.930;13.334;2022-09-17T08:46:36;12.77;;;4.28;;
27632;SDS011;15046;50.930;13.334;2022-09-17T08:49:31;13.38;;;3.50;;
27632;SDS011;15046;50.930;13.334;2022-09-17T08:55:01;12.93;;;4.22;;
27632;SDS011;15046;50.930;13.334;2022-09-17T09:06:48;10.93;;;3.88;;
27632;SDS011;15046;50.930;13.334;2022-09-17T09:09:20;11.00;;;5.32;;
27632;SDS011;15046;50.930;13.334;2022-09-17T09:11:50;15.90;;;4.30;;
27632;SDS011;15046;50.930;13.334;2022-09-17T09:14:28;10.25;;;3.70;;
27632;SDS011;15046;50.930;13.334;2022-09-17T09:17:00;11.75;;;3.47;;
27632;SDS011;15046;50.930;13.334;2022-09-17T09:19:32;13.45;;;3.80;;
27632;SDS011;15046;50.930;13.334;2022-09-17T09:24:41;10.23;;;2.80;;
27632;SDS011;15046;50.930;13.334;2022-09-17T09:27:27;11.07;;;3.45;;
27632;SDS011;15046;50.930;13.334;2022-09-17T09:35:31;7.60;;;3.03;;
27632;SDS011;15046;50.930;13.334;2022-09-17T09:43:50;10.70;;;3.55;;
27632;SDS011;15046;50.930;13.334;2022-09-17T09:49:11;8.07;;;3.25;;
27632;SDS011;15046;50.930;13.334;2022-09-17T09:57:52;7.97;;;2.40;;
27632;SDS011;15046;50.930;13.334;2022-09-17T10:00:29;9.70;;;2.30;;
27632;SDS011;15046;50.930;13.334;2022-09-17T10:05:35;9.00;;;3.22;;
27632;SDS011;15046;50.930;13.334;2022-09-17T10:08:11;8.73;;;2.67;;
27632;SDS011;15046;50.930;13.334;2022-09-17T10:10:54;11.18;;;2.75;;
27632;SDS011;15046;50.930;13.334;2022-09-17T10:13:32;7.13;;;2.15;;
27632;SDS011;15046;50.930;13.334;2022-09-17T10:18:46;5.57;;;2.20;;
27632;SDS011;15046;50.930;13.334;2022-09-17T10:21:19;10.43;;;2.53;;
27632;SDS011;15046;50.930;13.334;2022-09-17T10:23:47;9.93;;;2.80;;
27632;SDS011;15046;50.930;13.334;2022-09-17T10:26:25;7.15;;;2.58;;
27632;SDS011;15046;50.930;13.334;2022-09-17T10:28:57;8.90;;;2.28;;
27632;SDS011;15046;50.930;13.334;2022-09-17T10:31:25;6.95;;;1.73;;
27632;SDS011;15046;50.930;13.334;2022-09-17T10:44:36;8.05;;;2.13;;
27632;SDS011;15046;50.930;13.334;2022-09-17T10:47:04;8.13;;;2.42;;
27632;SDS011;15046;50.930;13.334;2022-09-17T10:49:40;9.82;;;2.03;;
27632;SDS011;15046;50.930;13.334;2022-09-17T11:06:40;6.78;;;1.98;;
27632;SDS011;15046;50.930;13.334;2022-09-17T11:09:17;6.90;;;1.95;;
27632;SDS011;15046;50.930;13.334;2022-09-17T11:23:01;7.95;;;1.98;;
27632;SDS011;15046;50.930;13.334;2022-09-17T11:31:29;9.07;;;1.90;;
27632;SDS011;15046;50.930;13.334;2022-09-17T11:36:53;8.07;;;2.15;;
27632;SDS011;15046;50.930;13.334;2022-09-17T11:39:35;9.05;;;2.05;;
27632;SDS011;15046;50.930;13.334;2022-09-17T11:42:06;9.98;;;2.72;;
27632;SDS011;15046;50.930;13.334;2022-09-17T11:44:53;6.32;;;1.83;;
27632;SDS011;15046;50.930;13.334;2022-09-17T11:47:44;8.80;;;2.15;;
27632;SDS011;15046;50.930;13.334;2022-09-17T11:52:59;9.23;;;2.08;;
27632;SDS011;15046;50.930;13.334;2022-09-17T12:01:06;11.60;;;2.35;;
27632;SDS011;15046;50.930;13.334;2022-09-17T12:03:49;9.80;;;2.00;;
27632;SDS011;15046;50.930;13.334;2022-09-17T12:06:59;13.77;;;2.65;;
27632;SDS011;15046;50.930;13.334;2022-09-17T12:09:25;10.57;;;2.70;;
27632;SDS011;15046;50.930;13.334;2022-09-17T12:12:05;8.40;;;2.33;;
27632;SDS011;15046;50.930;13.334;2022-09-17T12:17:15;8.10;;;2.13;;
27632;SDS011;15046;50.930;13.334;2022-09-17T12:20:03;12.95;;;2.30;;
27632;SDS011;15046;50.930;13.334;2022-09-17T12:22:35;12.23;;;1.85;;
27632;SDS011;15046;50.930;13.334;2022-09-17T12:25:04;7.40;;;2.10;;
27632;SDS011;15046;50.930;13.334;2022-09-17T12:51:53;9.80;;;1.70;;
27632;SDS011;15046;50.930;13.334;2022-09-17T12:55:12;9.73;;;1.75;;
27632;SDS011;15046;50.930;13.334;2022-09-17T13:00:09;8.88;;;2.45;;
27632;SDS011;15046;50.930;13.334;2022-09-17T13:08:34;8.43;;;1.98;;
27632;SDS011;15046;50.930;13.334;2022-09-17T13:24:34;8.00;;;1.77;;
27632;SDS011;15046;50.930;13.334;2022-09-17T13:27:02;11.73;;;1.98;;
27632;SDS011;15046;50.930;13.334;2022-09-17T13:32:44;8.20;;;1.83;;
27632;SDS011;15046;50.930;13.334;2022-09-17T13:37:31;6.95;;;1.67;;
27632;SDS011;15046;50.930;13.334;2022-09-17T13:39:59;6.43;;;1.50;;
27632;SDS011;15046;50.930;13.334;2022-09-17T13:42:43;8.32;;;2.00;;
27632;SDS011;15046;50.930;13.334;2022-09-17T13:45:13;6.97;;;1.88;;
27632;SDS011;15046;50.930;13.334;2022-09-17T13:47:56;8.70;;;2.10;;
27632;SDS011;15046;50.930;13.334;2022-09-17T13:50:26;6.20;;;1.80;;
27632;SDS011;15046;50.930;13.334;2022-09-17T13:55:30;8.07;;;1.67;;
27632;SDS011;15046;50.930;13.334;2022-09-17T13:58:02;6.93;;;1.83;;
27632;SDS011;15046;50.930;13.334;2022-09-17T14:24:24;6.45;;;1.70;;
27632;SDS011;15046;50.930;13.334;2022-09-17T14:27:05;9.25;;;2.25;;
27632;SDS011;15046;50.930;13.334;2022-09-17T14:29:45;8.63;;;1.65;;
27632;SDS011;15046;50.930;13.334;2022-09-17T14:34:59;9.60;;;1.90;;
27632;SDS011;15046;50.930;13.334;2022-09-17T14:37:37;11.05;;;1.42;;
27632;SDS011;15046;50.930;13.334;2022-09-17T14:40:07;15.85;;;2.10;;
27632;SDS011;15046;50.930;13.334;2022-09-17T14:42:35;11.77;;;2.50;;
27632;SDS011;15046;50.930;13.334;2022-09-17T14:45:05;9.02;;;2.10;;
27632;SDS011;15046;50.930;13.334;2022-09-17T14:47:39;7.18;;;1.65;;
27632;SDS011;15046;50.930;13.334;2022-09-17T14:52:48;6.75;;;1.85;;
27632;SDS011;15046;50.930;13.334;2022-09-17T14:55:16;6.82;;;1.58;;
27632;SDS011;15046;50.930;13.334;2022-09-17T14:57:49;4.80;;;1.40;;
27632;SDS011;15046;50.930;13.334;2022-09-17T15:00:24;8.32;;;1.67;;
27632;SDS011;15046;50.930;13.334;2022-09-17T15:02:55;11.55;;;2.47;;
27632;SDS011;15046;50.930;13.334;2022-09-17T15:05:32;6.60;;;1.98;;
27632;SDS011;15046;50.930;13.334;2022-09-17T15:11:19;6.70;;;1.63;;
27632;SDS011;15046;50.930;13.334;2022-09-17T15:18:39;8.80;;;2.20;;
27632;SDS011;15046;50.930;13.334;2022-09-17T15:21:35;10.23;;;1.80;;
27632;SDS011;15046;50.930;13.334;2022-09-17T15:30:30;5.65;;;1.50;;
27632;SDS011;15046;50.930;13.334;2022-09-17T15:32:53;7.40;;;1.50;;
27632;SDS011;15046;50.930;13.334;2022-09-17T15:35:32;7.18;;;1.80;;
27632;SDS011;15046;50.930;13.334;2022-09-17T15:37:59;11.27;;;2.10;;
27632;SDS011;15046;50.930;13.334;2022-09-17T15:40:44;7.05;;;1.85;;
27632;SDS011;15046;50.930;13.334;2022-09-17T15:43:27;8.23;;;1.90;;
27632;SDS011;15046;50.930;13.334;2022-09-17T15:45:55;6.00;;;1.85;;
27632;SDS011;15046;50.930;13.334;2022-09-17T15:51:00;6.93;;;1.92;;
27632;SDS011;15046;50.930;13.334;2022-09-17T15:53:31;9.88;;;1.70;;
27632;SDS011;15046;50.930;13.334;2022-09-17T15:58:35;7.63;;;1.92;;
27632;SDS011;15046;50.930;13.334;2022-09-17T16:09:12;8.30;;;2.20;;
27632;SDS011;15046;50.930;13.334;2022-09-17T16:12:02;11.07;;;2.00;;
27632;SDS011;15046;50.930;13.334;2022-09-17T16:14:28;7.45;;;1.75;;
27632;SDS011;15046;50.930;13.334;2022-09-17T16:16:54;8.98;;;2.28;;
27632;SDS011;15046;50.930;13.334;2022-09-17T16:19:20;6.07;;;1.70;;
27632;SDS011;15046;50.930;13.334;2022-09-17T16:21:47;9.50;;;1.73;;
27632;SDS011;15046;50.930;13.334;2022-09-17T16:24:12;7.22;;;1.77;;
27632;SDS011;15046;50.930;13.334;2022-09-17T16:26:38;7.75;;;1.92;;
27632;SDS011;15046;50.930;13.334;2022-09-17T16:29:06;6.32;;;1.40;;
27632;SDS011;15046;50.930;13.334;2022-09-17T16:31:39;8.65;;;1.38;;
27632;SDS011;15046;50.930;13.334;2022-09-17T16:34:04;5.63;;;1.45;;
27632;SDS011;15046;50.930;13.334;2022-09-17T16:36:30;7.20;;;1.30;;
27632;SDS011;15046;50.930;13.334;2022-09-17T16:38:56;10.80;;;2.03;;
27632;SDS011;15046;50.930;13.334;2022-09-17T16:41:23;8.10;;;1.60;;
27632;SDS011;15046;50.930;13.334;2022-09-17T16:43:48;9.30;;;1.15;;
27632;SDS011;15046;50.930;13.334;2022-09-17T16:46:14;9.02;;;1.70;;
27632;SDS011;15046;50.930;13.334;2022-09-17T16:48:40;9.25;;;1.75;;
27632;SDS011;15046;50.930;13.334;2022-09-17T16:51:08;8.23;;;1.13;;
27632;SDS011;15046;50.930;13.334;2022-09-17T16:53:35;8.77;;;1.55;;
27632;SDS011;15046;50.930;13.334;2022-09-17T16:56:04;8.40;;;1.33;;
27632;SDS011;15046;50.930;13.334;2022-09-17T16:58:34;7.80;;;1.58;;
27632;SDS011;15046;50.930;13.334;2022-09-17T17:01:11;4.40;;;1.20;;
27632;SDS011;15046;50.930;13.334;2022-09-17T17:03:38;5.63;;;1.05;;
27632;SDS011;15046;50.930;13.334;2022-09-17T17:06:05;3.33;;;1.15;;
27632;SDS011;15046;50.930;13.334;2022-09-17T17:08:31;3.80;;;1.20;;
27632;SDS011;15046;50.930;13.334;2022-09-17T17:10:58;4.15;;;0.98;;
27632;SDS011;15046;50.930;13.334;2022-09-17T17:13:25;7.53;;;1.70;;
27632;SDS011;15046;50.930;13.334;2022-09-17T17:15:51;6.13;;;0.98;;
27632;SDS011;15046;50.930;13.334;2022-09-17T17:18:21;3.13;;;0.90;;
27632;SDS011;15046;50.930;13.334;2022-09-17T17:20:48;4.28;;;0.82;;
27632;SDS011;15046;50.930;13.334;2022-09-17T17:23:14;1.80;;;0.60;;
27632;SDS011;15046;50.930;13.334;2022-09-17T17:25:40;3.83;;;1.10;;
27632;SDS011;15046;50.930;13.334;2022-09-17T17:28:06;3.67;;;1.02;;
27632;SDS011;15046;50.930;13.334;2022-09-17T17:30:32;5.03;;;0.88;;
27632;SDS011;15046;50.930;13.334;2022-09-17T17:32:58;4.25;;;1.10;;
27632;SDS011;15046;50.930;13.334;2022-09-17T17:35:28;1.75;;;0.63;;
27632;SDS011;15046;50.930;13.334;2022-09-17T17:37:54;3.88;;;0.70;;
27632;SDS011;15046;50.930;13.334;2022-09-17T17:40:19;1.67;;;0.63;;
27632;SDS011;15046;50.930;13.334;2022-09-17T17:42:50;3.33;;;0.80;;
27632;SDS011;15046;50.930;13.334;2022-09-17T17:45:16;6.03;;;1.13;;
27632;SDS011;15046;50.930;13.334;2022-09-17T17:47:41;5.05;;;0.85;;
27632;SDS011;15046;50.930;13.334;2022-09-17T17:50:07;2.17;;;0.63;;
27632;SDS011;15046;50.930;13.334;2022-09-17T17:52:34;2.10;;;0.63;;
27632;SDS011;15046;50.930;13.334;2022-09-17T17:55:03;2.88;;;0.75;;
27632;SDS011;15046;50.930;13.334;2022-09-17T17:57:30;2.38;;;0.77;;
27632;SDS011;15046;50.930;13.334;2022-09-17T17:59:55;2.13;;;0.75;;
27632;SDS011;15046;50.930;13.334;2022-09-17T18:02:21;3.35;;;1.23;;
27632;SDS011;15046;50.930;13.334;2022-09-17T18:04:47;6.28;;;1.33;;
27632;SDS011;15046;50.930;13.334;2022-09-17T18:07:13;4.20;;;1.13;;
27632;SDS011;15046;50.930;13.334;2022-09-17T18:09:39;4.45;;;0.65;;
27632;SDS011;15046;50.930;13.334;2022-09-17T18:12:05;5.20;;;0.80;;
27632;SDS011;15046;50.930;13.334;2022-09-17T18:14:31;2.75;;;0.68;;
27632;SDS011;15046;50.930;13.334;2022-09-17T18:16:57;3.53;;;0.90;;
27632;SDS011;15046;50.930;13.334;2022-09-17T18:19:22;2.75;;;0.90;;
27632;SDS011;15046;50.930;13.334;2022-09-17T18:21:48;4.18;;;0.95;;
27632;SDS011;15046;50.930;13.334;2022-09-17T18:24:14;1.73;;;0.50;;
27632;SDS011;15046;50.930;13.334;2022-09-17T18:26:40;2.30;;;0.65;;
27632;SDS011;15046;50.930;13.334;2022-09-17T18:29:06;3.45;;;0.93;;
27632;SDS011;15046;50.930;13.334;2022-09-17T18:31:32;4.47;;;0.98;;
27632;SDS011;15046;50.930;13.334;2022-09-17T18:34:19;2.35;;;0.70;;
27632;SDS011;15046;50.930;13.334;2022-09-17T18:36:45;4.70;;;1.02;;
27632;SDS011;15046;50.930;13.334;2022-09-17T18:39:11;3.33;;;1.10;;
27632;SDS011;15046;50.930;13.334;2022-09-17T18:41:39;3.22;;;1.02;;
27632;SDS011;15046;50.930;13.334;2022-09-17T18:44:06;3.35;;;1.00;;
27632;SDS011;15046;50.930;13.334;2022-09-17T18:46:32;5.60;;;1.92;;
27632;SDS011;15046;50.930;13.334;2022-09-17T18:48:59;11.05;;;1.15;;
27632;SDS011;15046;50.930;13.334;2022-09-17T18:51:25;3.08;;;0.88;;
27632;SDS011;15046;50.930;13.334;2022-09-17T18:53:52;3.95;;;1.48;;